sensor_id;sensor_type;location;lat;lon;timestamp;P1;P2;P0
50041;PMS7003;44598;51.606;5.912;2023-02-15T00:06:23;39.86;32.27;15.81
50041;PMS7003;44598;51.606;5.912;2023-02-15T00:19:42;40.34;33.25;15.81
50041;PMS7003;44598;51.606;5.912;2023-02-15T01:26:21;39.38;32.6;15.6
50041;PMS7003;44598;51.606;5.912;2023-02-15T02:06:21;39.74;32.38;15.71
50041;PMS7003;44598;51.606;5.912;2023-02-15T02:46:20;42.26;33.14;15.71
50041;PMS7003;44598;51.606;5.912;2023-02-15T03:26:20;40.94;33.36;15.27
50041;PMS7003;44598;51.606;5.912;2023-02-15T03:39:39;41.06;33.91;15.71
50041;PMS7003;44598;51.606;5.912;2023-02-15T03:52:59;39.74;33.14;15.92
50041;PMS7003;44598;51.606;5.912;2023-02-15T04:19:39;43.94;35.54;16.69
50041;PMS7003;44598;51.606;5.912;2023-02-15T04:59:38;47.54;37.94;16.8
50041;PMS7003;44598;51.606;5.912;2023-02-15T05:12:58;46.22;36.85;16.69
50041;PMS7003;44598;51.606;5.912;2023-02-15T05:52:58;46.82;37.29;17.23
50041;PMS7003;44598;51.606;5.912;2023-02-15T06:06:17;46.46;36.74;17.12
50041;PMS7003;44598;51.606;5.912;2023-02-15T06:46:17;47.06;37.07;16.8
50041;PMS7003;44598;51.606;5.912;2023-02-15T06:59:37;47.18;36.96;16.47
50041;PMS7003;44598;51.606;5.912;2023-02-15T07:26:16;50.3;40.67;18.65
50041;PMS7003;44598;51.606;5.912;2023-02-15T07:52:56;52.1;43.39;18.65
50041;PMS7003;44598;51.606;5.912;2023-02-15T09:26:15;42.74;34.56;17.67
50041;PMS7003;44598;51.606;5.912;2023-02-15T10:46:14;34.58;29.11;15.49
50041;PMS7003;44598;51.606;5.912;2023-02-15T10:59:34;32.17;27.37;15.05
50041;PMS7003;44598;51.606;5.912;2023-02-15T11:26:13;31.81;26.61;15.16
50041;PMS7003;44598;51.606;5.912;2023-02-15T12:06:13;28.45;24.86;13.96
50041;PMS7003;44598;51.606;5.912;2023-02-15T12:32:52;26.05;23.12;13.74
50041;PMS7003;44598;51.606;5.912;2023-02-15T13:52:51;27.85;24.32;14.4
50041;PMS7003;44598;51.606;5.912;2023-02-15T14:06:11;28.21;24.64;14.94
50041;PMS7003;44598;51.606;5.912;2023-02-15T14:19:31;28.45;24.75;14.72
50041;PMS7003;44598;51.606;5.912;2023-02-15T15:12:50;28.69;24.86;14.72
50041;PMS7003;44598;51.606;5.912;2023-02-15T15:52:49;30.37;25.84;15.16
50041;PMS7003;44598;51.606;5.912;2023-02-15T17:39:28;32.41;27.04;14.83
50041;PMS7003;44598;51.606;5.912;2023-02-15T17:52:48;30.97;26.71;14.94
50041;PMS7003;44598;51.606;5.912;2023-02-15T18:19:27;33.13;28.02;15.38
50041;PMS7003;44598;51.606;5.912;2023-02-15T18:32:47;35.3;29.22;16.36
50041;PMS7003;44598;51.606;5.912;2023-02-15T18:46:07;35.54;29.66;16.03
50041;PMS7003;44598;51.606;5.912;2023-02-15T19:12:47;37.82;30.96;16.47
50041;PMS7003;44598;51.606;5.912;2023-02-15T19:26:06;39.14;31.84;17.01
50041;PMS7003;44598;51.606;5.912;2023-02-15T19:39:26;41.78;33.14;17.23
50041;PMS7003;44598;51.606;5.912;2023-02-15T20:19:26;44.18;36.2;18.76
50041;PMS7003;44598;51.606;5.912;2023-02-15T21:12:45;44.18;36.74;19.63
50041;PMS7003;44598;51.606;5.912;2023-02-15T21:39:25;46.82;39.58;19.19
50041;PMS7003;44598;51.606;5.912;2023-02-15T22:32:44;46.7;40.12;18.76
50041;PMS7003;44598;51.606;5.912;2023-02-15T22:46:04;45.86;38.05;18.98
50041;PMS7003;44598;51.606;5.912;2023-02-15T22:59:24;45.86;39.03;18.54
50041;PMS7003;44598;51.606;5.912;2023-02-15T23:12:44;46.34;39.36;19.19
50041;PMS7003;44598;51.606;5.912;2023-02-15T23:52:43;46.58;38.59;19.52
